Time;durP1;ratioP1;P1;durP2;ratioP2;P2;SDS_P1;SDS_P2;PMS_P1;PMS_P2;Temp;Humidity;BMP_temperature;BMP_pressure;BME280_temperature;BME280_humidity;BME280_pressure;Samples;Min_cycle;Max_cycle;Signal;HPM_P1;HPM_P2
2022/11/02 00:02:27;;;;;;;28.17;9.07;;;13.40;78.60;;;13.55;55.42;95602.94;5017330;28;20453;-54
2022/11/02 00:04:54;;;;;;;15.07;8.83;;;13.30;79.00;;;13.51;55.37;95596.28;5016837;28;20457;-55
2022/11/02 00:07:21;;;;;;;18.10;9.47;;;13.30;79.10;;;13.52;55.99;95594.47;5015307;28;20504;-56
2022/11/02 00:09:48;;;;;;;25.77;9.10;;;13.30;80.00;;;13.50;55.52;95599.91;5017653;28;20535;-55
2022/11/02 00:12:16;;;;;;;19.73;8.90;;;13.30;79.10;;;13.47;55.51;95594.88;5017411;28;20460;-57
2022/11/02 00:14:44;;;;;;;15.03;8.40;;;13.20;79.30;;;13.45;55.54;95594.19;5017046;28;20453;-54
2022/11/02 00:17:11;;;;;;;16.50;8.70;;;13.20;79.10;;;13.40;55.79;95591.13;5015250;28;20933;-54
2022/11/02 00:19:39;;;;;;;14.60;8.43;;;13.20;80.60;;;13.37;55.93;95594.03;5017361;28;20445;-55
2022/11/02 00:22:06;;;;;;;29.83;9.70;;;13.10;80.50;;;13.35;56.04;95588.06;5015458;28;20457;-55
2022/11/02 00:24:33;;;;;;;23.63;9.37;;;13.10;80.40;;;13.31;56.16;95591.91;5014326;28;20480;-54
2022/11/02 00:27:02;;;;;;;23.17;8.03;;;13.10;80.90;;;13.29;55.98;95594.72;5015654;28;20496;-55
2022/11/02 00:29:29;;;;;;;34.70;9.97;;;13.00;81.10;;;13.26;55.82;95598.47;5015784;28;20481;-54
2022/11/02 00:31:58;;;;;;;11.37;8.10;;;13.00;81.00;;;13.23;56.67;95588.19;5016267;28;20457;-54
2022/11/02 00:34:26;;;;;;;19.90;9.77;;;13.00;82.00;;;13.20;56.35;95593.75;5010273;28;20483;-55
2022/11/02 00:36:53;;;;;;;23.97;8.00;;;13.00;82.20;;;13.18;56.30;95592.22;5015938;28;20452;-54
2022/11/02 00:39:21;;;;;;;20.60;8.67;;;13.00;82.40;;;13.15;56.40;95590.69;5016064;28;20473;-54
2022/11/02 00:41:48;;;;;;;20.37;8.83;;;12.90;82.50;;;13.14;56.70;95594.28;5010880;28;20491;-55
2022/11/02 00:44:15;;;;;;;22.07;8.03;;;12.90;82.80;;;13.10;56.56;95587.59;5015871;28;20910;-56
2022/11/02 00:46:42;;;;;;;23.97;8.70;;;12.90;82.90;;;13.08;56.64;95593.03;5016060;28;20500;-54
2022/11/02 00:49:11;;;;;;;20.13;8.43;;;12.90;83.40;;;13.06;56.20;95588.88;5010077;28;20476;-54
2022/11/02 00:51:38;;;;;;;22.33;8.00;;;12.80;83.10;;;13.04;56.40;95585.53;5016427;28;20453;-56
2022/11/02 00:54:05;;;;;;;23.77;8.50;;;12.80;83.20;;;13.02;56.45;95595.41;5013925;28;20473;-55
2022/11/02 00:56:33;;;;;;;19.60;7.70;;;12.80;83.60;;;13.00;56.42;95600.00;5017577;28;20445;-56
2022/11/02 00:59:00;;;;;;;21.83;8.73;;;12.80;84.10;;;12.97;56.95;95597.63;5015531;28;20539;-53
2022/11/02 01:01:27;;;;;;;24.63;8.30;;;12.80;84.60;;;12.94;57.35;95597.91;5015075;28;20450;-54
2022/11/02 01:03:56;;;;;;;16.87;8.63;;;12.70;84.70;;;12.92;56.83;95595.38;5016214;28;20478;-54
2022/11/02 01:06:25;;;;;;;13.97;7.30;;;12.70;84.70;;;12.89;56.94;95600.94;5015985;28;20496;-54
2022/11/02 01:08:53;;;;;;;23.83;9.83;;;12.70;84.70;;;12.87;56.83;95593.16;5017266;28;20480;-56
2022/11/02 01:11:21;;;;;;;11.93;8.20;;;12.70;85.20;;;12.84;57.10;95604.00;5020111;28;20453;-55
2022/11/02 01:13:51;;;;;;;20.83;9.03;;;12.70;85.40;;;12.82;57.22;95600.63;5020378;28;20468;-55
2022/11/02 01:16:18;;;;;;;19.17;9.87;;;12.60;85.90;;;12.79;57.76;95590.34;5017642;28;20455;-57
2022/11/02 01:18:45;;;;;;;15.90;7.23;;;12.60;86.70;;;12.75;57.48;95594.25;5019024;28;20477;-54
2022/11/02 01:21:12;;;;;;;17.70;9.60;;;12.60;86.70;;;12.73;57.49;95593.53;5020708;28;20456;-57
2022/11/02 01:23:41;;;;;;;19.67;8.53;;;12.60;86.70;;;12.69;57.91;95595.59;5016536;28;20485;-54
2022/11/02 01:26:09;;;;;;;19.80;8.50;;;12.50;87.00;;;12.69;57.50;95594.78;5019643;28;20452;-54
2022/11/02 01:28:36;;;;;;;12.13;7.90;;;12.50;87.00;;;12.66;57.38;95587.97;5020380;28;20833;-54
2022/11/02 01:31:04;;;;;;;26.47;8.77;;;12.50;87.20;;;12.64;58.18;95584.63;5019816;28;20532;-55
2022/11/02 01:33:31;;;;;;;21.00;9.70;;;12.40;88.00;;;12.62;57.88;95583.09;5018590;28;20477;-57
2022/11/02 01:35:58;;;;;;;16.40;7.43;;;12.40;87.90;;;12.60;57.86;95577.94;5020707;28;20511;-55
2022/11/02 01:38:25;;;;;;;17.77;7.67;;;12.40;87.70;;;12.57;58.05;95575.56;5018624;28;20847;-55
2022/11/02 01:40:54;;;;;;;13.90;8.60;;;12.40;88.10;;;12.57;58.10;95572.09;5019291;28;20543;-55
2022/11/02 01:43:22;;;;;;;25.20;8.30;;;12.30;88.30;;;12.57;57.99;95574.75;5019749;28;21028;-56
2022/11/02 01:45:51;;;;;;;14.30;7.57;;;12.30;88.40;;;12.54;57.81;95568.75;5020418;28;20604;-55
2022/11/02 01:48:20;;;;;;;12.50;8.10;;;12.30;88.00;;;12.53;57.68;95567.09;5019671;28;20491;-55
2022/11/02 01:50:47;;;;;;;19.03;7.60;;;12.30;88.30;;;12.50;58.00;95563.88;5019914;28;21036;-56
2022/11/02 01:53:14;;;;;;;25.70;8.00;;;12.30;88.50;;;12.47;57.93;95567.63;5019978;28;20516;-55
2022/11/02 01:55:41;;;;;;;18.23;7.70;;;12.30;88.60;;;12.45;58.21;95563.44;5019770;28;20984;-55
2022/11/02 01:58:11;;;;;;;14.50;7.40;;;12.30;88.70;;;12.41;58.24;95570.81;5017505;28;20986;-54
2022/11/02 02:00:39;;;;;;;19.37;8.40;;;12.20;89.50;;;12.37;58.22;95561.47;5016416;28;20453;-54
2022/11/02 02:03:09;;;;;;;20.73;8.17;;;12.20;89.10;;;12.36;58.07;95567.72;5012727;28;20998;-54
2022/11/02 02:05:40;;;;;;;17.33;7.13;;;12.20;89.20;;;12.32;58.42;95561.06;5014084;28;20818;-53
2022/11/02 02:08:07;;;;;;;12.60;6.90;;;12.10;90.00;;;12.31;58.36;95567.28;5011833;28;20497;-53
2022/11/02 02:10:35;;;;;;;16.30;6.80;;;12.10;90.10;;;12.28;58.83;95570.19;5015950;28;20449;-55
2022/11/02 02:13:03;;;;;;;14.00;6.77;;;12.10;90.10;;;12.26;58.56;95572.13;5011940;28;20482;-54
2022/11/02 02:15:38;;;;;;;21.93;6.47;;;12.10;90.10;;;12.23;58.44;95562.69;5010258;28;20932;-56
2022/11/02 02:18:09;;;;;;;17.00;7.50;;;12.10;90.00;;;12.20;58.61;95558.50;5016815;28;21041;-54
2022/11/02 02:20:50;;;;;;;13.20;6.87;;;12.00;90.00;;;12.17;58.73;95552.66;5012521;28;20962;-56
2022/11/02 02:23:44;;;;;;;14.27;7.63;;;12.00;90.00;;;12.18;59.11;95567.53;5015439;28;20495;-53
2022/11/02 02:26:44;;;;;;;15.60;6.63;;;12.00;90.20;;;12.16;58.89;95562.38;5015385;28;20537;-54
2022/11/02 02:29:16;;;;;;;18.23;6.97;;;12.00;90.30;;;12.15;58.85;95565.16;5010919;28;20487;-55
2022/11/02 02:31:46;;;;;;;17.47;6.90;;;12.00;90.40;;;12.13;58.61;95567.91;5016041;28;20442;-56
2022/11/02 02:34:16;;;;;;;14.07;7.07;;;11.90;90.40;;;12.13;58.91;95562.66;5014067;28;20476;-56
2022/11/02 02:36:45;;;;;;;19.50;8.90;;;11.90;90.50;;;12.12;58.89;95568.88;5013304;28;20988;-56
2022/11/02 02:39:16;;;;;;;17.00;7.60;;;11.90;90.70;;;12.11;59.46;95569.84;5012859;28;20473;-55
2022/11/02 02:41:46;;;;;;;16.47;7.73;;;11.90;91.00;;;12.10;59.43;95559.41;5014689;28;20912;-55
2022/11/02 02:44:17;;;;;;;20.80;8.43;;;11.90;91.10;;;12.09;59.23;95571.78;5009912;28;20474;-55
2022/11/02 02:46:46;;;;;;;23.83;8.80;;;11.90;91.00;;;12.07;59.57;95565.81;5013235;28;21835;-55
2022/11/02 02:49:18;;;;;;;24.33;7.93;;;11.90;91.20;;;12.07;59.45;95563.16;5014915;28;20543;-54
2022/11/02 02:51:45;;;;;;;27.27;9.27;;;11.90;91.30;;;12.07;59.47;95564.97;5016892;28;20449;-54
2022/11/02 02:54:15;;;;;;;21.03;8.20;;;11.90;91.20;;;12.05;59.43;95562.44;5015506;28;20957;-54
2022/11/02 02:56:44;;;;;;;16.63;8.83;;;11.90;91.30;;;12.06;59.54;95569.41;5021435;28;20491;-54
2022/11/02 02:59:18;;;;;;;19.33;9.70;;;11.90;91.40;;;12.07;59.61;95565.81;5019553;28;20872;-56
2022/11/02 03:01:46;;;;;;;22.83;10.40;;;11.90;91.50;;;12.05;59.63;95565.09;5017861;28;20540;-55
2022/11/02 03:04:13;;;;;;;28.17;9.93;;;11.90;91.70;;;12.06;59.51;95568.56;5018006;28;20468;-56
2022/11/02 03:06:41;;;;;;;20.43;9.70;;;11.80;91.50;;;12.05;59.72;95567.72;5017427;28;20475;-55
2022/11/02 03:09:12;;;;;;;23.90;9.40;;;11.90;91.50;;;12.05;59.66;95572.16;5016981;28;20792;-54
2022/11/02 03:11:45;;;;;;;18.73;10.27;;;11.90;91.50;;;12.03;59.75;95572.31;5015510;28;20448;-55
2022/11/02 03:14:22;;;;;;;27.33;10.10;;;11.90;91.60;;;12.02;59.92;95575.91;5014701;28;20993;-54
2022/11/02 03:17:09;;;;;;;25.50;10.30;;;11.80;91.70;;;11.98;60.65;95563.97;5015717;28;20503;-55
2022/11/02 03:19:41;;;;;;;16.27;9.43;;;11.80;92.20;;;11.94;59.64;95573.09;5016742;28;20961;-56
2022/11/02 03:22:12;;;;;;;43.73;10.60;;;11.80;91.60;;;11.91;59.96;95568.88;5015661;28;20957;-56
2022/11/02 03:24:43;;;;;;;26.63;10.97;;;11.70;91.80;;;11.89;59.93;95567.34;5015672;28;20453;-56
2022/11/02 03:27:16;;;;;;;25.07;10.90;;;11.70;91.70;;;11.86;60.04;95567.63;5017400;28;20577;-54
2022/11/02 03:29:48;;;;;;;28.27;10.57;;;11.70;92.00;;;11.82;59.91;95567.88;5012002;28;20449;-55
2022/11/02 03:32:20;;;;;;;21.17;8.73;;;11.70;92.00;;;11.79;60.39;95565.50;5011187;28;20457;-55
2022/11/02 03:34:50;;;;;;;19.33;9.30;;;11.60;92.30;;;11.77;60.42;95561.31;5011098;28;20499;-56
2022/11/02 03:37:19;;;;;;;18.63;8.57;;;11.60;92.40;;;11.75;60.31;95566.72;5010386;28;20484;-53
2022/11/02 03:39:48;;;;;;;13.63;9.23;;;11.60;92.30;;;11.74;60.43;95572.13;5015399;28;20452;-54
2022/11/02 03:42:19;;;;;;;26.43;10.70;;;11.60;92.30;;;11.71;60.41;95564.47;5011150;28;20592;-55
2022/11/02 03:44:47;;;;;;;18.20;8.80;;;11.50;92.50;;;11.66;60.09;95564.84;5013990;28;20511;-54
2022/11/02 03:47:16;;;;;;;24.47;9.80;;;11.50;92.40;;;11.63;60.44;95567.75;5013335;28;21154;-54
2022/11/02 03:49:43;;;;;;;17.57;9.37;;;11.50;92.50;;;11.60;60.80;95568.00;5012696;28;20461;-54
2022/11/02 03:52:12;;;;;;;29.20;10.00;;;11.40;92.50;;;11.57;60.50;95563.00;5017222;28;20484;-56
2022/11/02 03:54:42;;;;;;;17.60;9.10;;;11.40;92.50;;;11.56;60.62;95563.97;5016919;28;20476;-57
2022/11/02 03:57:12;;;;;;;15.33;9.00;;;11.40;92.50;;;11.52;60.87;95554.66;5015519;28;21047;-57
2022/11/02 03:59:39;;;;;;;27.07;10.07;;;11.40;92.80;;;11.52;60.73;95562.53;5009065;28;20457;-54
2022/11/02 04:02:09;;;;;;;19.90;10.00;;;11.40;92.80;;;11.48;60.96;95562.81;5015069;28;20450;-56
2022/11/02 04:04:49;;;;;;;23.27;10.47;;;11.30;92.90;;;11.47;61.10;95555.84;5014447;28;20454;-54
2022/11/02 04:07:19;;;;;;;20.37;9.57;;;11.30;92.90;;;11.46;60.93;95566.53;5015103;28;20854;-55
2022/11/02 04:09:46;;;;;;;29.10;9.70;;;11.30;93.00;;;11.43;61.18;95567.63;5012972;28;20453;-57
2022/11/02 04:15:12;;;;;;;20.33;9.77;;;11.30;93.30;;;11.40;61.11;95569.66;4955098;28;20432;-54
2022/11/02 04:20:26;;;;;;;23.70;11.10;;;11.20;93.20;;;11.34;61.22;95568.41;4986001;28;20929;-56
2022/11/02 04:25:37;;;;;;;17.60;8.80;;;11.20;93.40;;;11.33;61.46;95563.25;5012168;28;20424;-54
2022/11/02 04:28:08;;;;;;;24.40;9.93;;;11.20;93.50;;;11.30;61.45;95561.69;5009951;28;20489;-54
2022/11/02 04:30:35;;;;;;;23.70;10.67;;;11.20;93.50;;;11.29;61.30;95562.66;5012167;28;20453;-55
2022/11/02 04:35:48;;;;;;;20.93;10.33;;;11.10;93.60;;;11.24;61.79;95570.09;5008709;28;20484;-53
2022/11/02 04:43:42;;;;;;;22.97;9.90;;;11.10;93.70;;;11.19;61.80;95567.03;5012740;28;20496;-55
2022/11/02 04:46:09;;;;;;;15.53;9.03;;;11.00;93.90;;;11.17;61.98;95566.28;5016827;28;20452;-56
2022/11/02 04:48:37;;;;;;;20.43;10.13;;;11.00;93.90;;;11.14;61.71;95564.78;5020981;28;20576;-54
2022/11/02 04:51:05;;;;;;;25.27;10.70;;;11.00;93.70;;;11.12;61.85;95567.53;5020582;28;20460;-56
2022/11/02 04:53:34;;;;;;;33.20;10.10;;;11.00;93.80;;;11.10;62.15;95564.16;5018808;28;20493;-55
2022/11/02 04:56:01;;;;;;;26.47;11.80;;;11.00;94.30;;;11.09;62.14;95567.78;5021019;28;20865;-57
2022/11/02 04:58:28;;;;;;;26.73;10.40;;;11.00;94.20;;;11.08;62.14;95563.47;5016983;28;20997;-55
2022/11/02 05:00:56;;;;;;;37.13;12.27;;;11.00;94.30;;;11.06;62.19;95570.66;5018919;28;20457;-56
2022/11/02 05:03:23;;;;;;;41.73;11.40;;;10.90;94.30;;;11.07;62.32;95572.31;5019781;28;20480;-55
2022/11/02 05:05:55;;;;;;;24.83;9.50;;;10.90;94.20;;;11.08;62.32;95566.09;5020048;28;20456;-56
2022/11/02 05:08:23;;;;;;;18.70;9.53;;;10.90;94.30;;;11.07;61.98;95572.31;5017168;28;20546;-55
2022/11/02 05:10:53;;;;;;;32.57;11.80;;;10.90;94.20;;;11.07;62.43;95567.06;5019994;28;20445;-56
2022/11/02 05:13:20;;;;;;;27.43;10.20;;;10.90;94.30;;;11.09;61.99;95577.47;5016519;28;20523;-54
2022/11/02 05:15:48;;;;;;;28.83;11.50;;;10.90;94.20;;;11.09;61.95;95570.41;5015935;28;20460;-55
2022/11/02 05:18:15;;;;;;;29.73;10.93;;;11.00;94.30;;;11.10;62.27;95579.13;5019879;28;21075;-55
2022/11/02 05:20:42;;;;;;;33.77;11.70;;;10.90;94.30;;;11.12;62.16;95579.84;5017945;28;20475;-56
2022/11/02 05:23:11;;;;;;;24.37;10.90;;;11.00;94.30;;;11.12;62.38;95585.97;5018606;28;20862;-55
2022/11/02 05:25:38;;;;;;;34.87;11.73;;;11.00;94.40;;;11.16;62.21;95588.34;5015068;28;20465;-54
2022/11/02 05:28:06;;;;;;;29.20;11.13;;;11.00;94.50;;;11.19;62.05;95593.34;5018735;28;20492;-55
2022/11/02 05:30:33;;;;;;;55.33;12.83;;;11.00;94.40;;;11.22;62.46;95595.75;5018218;28;20465;-56
2022/11/02 05:33:01;;;;;;;32.37;10.47;;;11.10;94.60;;;11.25;62.00;95593.69;5018027;28;21022;-56
2022/11/02 05:35:28;;;;;;;28.50;11.23;;;11.10;94.40;;;11.28;61.74;95592.59;5019587;28;20460;-56
2022/11/02 05:37:56;;;;;;;39.27;11.67;;;11.10;94.20;;;11.32;61.53;95599.28;5017335;28;20477;-54
2022/11/02 05:40:24;;;;;;;22.03;13.03;;;11.10;93.90;;;11.36;62.40;95607.78;5014419;28;20458;-56
2022/11/02 05:42:52;;;;;;;66.00;14.60;;;11.20;94.20;;;11.45;61.74;95607.03;5019425;28;21095;-55
2022/11/02 05:45:19;;;;;;;48.40;13.77;;;11.30;94.40;;;11.60;61.68;95612.78;5019999;28;20452;-54
2022/11/02 05:47:46;;;;;;;34.47;14.50;;;11.40;94.70;;;11.86;61.02;95615.06;5015859;28;20491;-56
2022/11/02 05:50:13;;;;;;;42.77;15.70;;;11.60;94.20;;;12.18;60.82;95617.63;5017599;28;20457;-55
2022/11/02 05:52:41;;;;;;;39.33;13.20;;;11.90;94.00;;;12.53;60.11;95622.50;5020206;28;21003;-54
2022/11/02 05:55:09;;;;;;;58.53;14.30;;;12.20;93.50;;;12.89;59.32;95619.41;5016541;28;20457;-55
2022/11/02 05:57:38;;;;;;;35.43;13.07;;;12.50;93.00;;;13.26;58.99;95627.53;5014719;28;20523;-56
2022/11/02 06:00:06;;;;;;;48.43;19.47;;;12.90;92.70;;;13.65;58.03;95626.75;5015084;28;20453;-55
2022/11/02 06:02:34;;;;;;;47.27;16.67;;;13.20;92.20;;;14.06;57.17;95626.53;5015292;28;20487;-54
2022/11/02 06:05:01;;;;;;;41.50;16.13;;;13.60;91.50;;;14.48;56.15;95623.50;5017851;28;20444;-55
2022/11/02 06:07:29;;;;;;;36.17;13.97;;;14.00;90.70;;;14.88;55.57;95623.19;5017695;28;20457;-53
2022/11/02 06:09:56;;;;;;;45.13;13.93;;;14.40;89.80;;;15.30;54.54;95626.28;5016245;28;21088;-56
2022/11/02 06:12:23;;;;;;;40.90;14.73;;;14.80;88.20;;;15.70;53.79;95627.66;5018179;28;20464;-56
2022/11/02 06:14:52;;;;;;;35.37;14.70;;;15.20;86.30;;;16.10;52.94;95621.88;5018904;28;20980;-56
2022/11/02 06:17:20;;;;;;;53.57;18.43;;;15.60;84.70;;;16.53;52.31;95637.03;5017309;28;20522;-56
2022/11/02 06:19:47;;;;;;;30.23;15.33;;;15.90;82.90;;;16.99;51.49;95629.66;5017155;28;20457;-57
2022/11/02 06:22:14;;;;;;;36.40;15.30;;;16.40;81.20;;;17.45;50.40;95630.09;5018858;28;20892;-56
2022/11/02 06:24:41;;;;;;;57.93;14.70;;;16.80;79.60;;;17.90;49.99;95628.84;5017558;28;20929;-55
2022/11/02 06:27:09;;;;;;;31.80;14.93;;;17.30;77.80;;;18.38;48.78;95628.13;5018856;28;20528;-54
2022/11/02 06:29:36;;;;;;;36.97;16.87;;;17.80;75.30;;;18.84;48.11;95633.69;5019190;28;20852;-54
2022/11/02 06:32:05;;;;;;;33.90;17.53;;;18.30;74.00;;;19.28;47.63;95627.81;5017515;28;20512;-56
2022/11/02 06:34:33;;;;;;;36.83;18.20;;;18.70;71.90;;;19.70;46.20;95631.91;5015460;28;20609;-56
2022/11/02 06:37:00;;;;;;;35.10;16.27;;;19.10;70.40;;;20.11;46.38;95635.28;5019201;28;20954;-55
2022/11/02 06:39:27;;;;;;;40.03;16.80;;;19.60;69.00;;;20.54;45.18;95638.22;5018881;28;20576;-56
2022/11/02 06:41:55;;;;;;;43.27;16.27;;;20.00;67.50;;;20.98;44.41;95640.09;5019273;28;20506;-55
2022/11/02 06:44:22;;;;;;;52.93;15.33;;;20.50;66.00;;;21.42;44.05;95646.41;5012874;28;20532;-55
2022/11/02 06:46:50;;;;;;;53.77;15.83;;;20.90;64.50;;;21.80;43.06;95640.88;5017048;28;20458;-56
2022/11/02 06:49:19;;;;;;;49.37;15.53;;;21.30;63.20;;;22.20;42.82;95636.69;5015265;28;20520;-53
2022/11/02 06:51:46;;;;;;;58.33;15.47;;;21.60;61.60;;;22.59;41.66;95631.88;5018734;28;20453;-56
2022/11/02 06:54:13;;;;;;;51.33;15.03;;;22.00;60.00;;;23.01;40.97;95639.97;5018813;28;20476;-55
2022/11/02 06:56:40;;;;;;;39.93;16.07;;;22.40;59.30;;;23.39;40.76;95634.16;5018027;28;20518;-56
2022/11/02 06:59:08;;;;;;;38.37;14.40;;;22.80;58.10;;;23.81;39.65;95632.19;5015997;28;20481;-57
2022/11/02 07:01:35;;;;;;;54.37;15.73;;;23.20;56.90;;;24.19;39.43;95623.59;5019491;28;20822;-56
2022/11/02 07:04:02;;;;;;;46.97;14.67;;;23.60;56.00;;;24.56;38.58;95628.56;5015783;28;20481;-56
2022/11/02 07:06:31;;;;;;;57.53;15.07;;;23.90;55.00;;;24.97;37.64;95632.84;5018170;28;20450;-56
2022/11/02 07:08:58;;;;;;;51.20;13.90;;;24.40;54.40;;;25.35;37.38;95629.44;5017650;28;20512;-55
2022/11/02 07:11:26;;;;;;;31.83;13.60;;;24.80;53.20;;;25.73;36.45;95632.13;5017281;28;20448;-55
2022/11/02 07:13:53;;;;;;;38.13;13.50;;;25.30;52.40;;;26.06;36.12;95627.63;5016120;28;20500;-57
2022/11/02 07:16:20;;;;;;;32.87;12.20;;;25.70;51.60;;;26.40;35.45;95626.28;5012899;28;20448;-54
2022/11/02 07:18:47;;;;;;;31.27;13.00;;;26.10;50.30;;;26.69;34.55;95623.16;5017265;28;20472;-56
2022/11/02 07:21:15;;;;;;;29.63;12.80;;;26.50;49.30;;;26.93;34.31;95625.00;5017948;28;20452;-57
2022/11/02 07:23:43;;;;;;;46.13;13.30;;;26.90;48.80;;;27.22;33.86;95627.16;5016618;28;20472;-57
2022/11/02 07:26:11;;;;;;;41.93;13.53;;;27.20;48.10;;;27.48;33.74;95624.19;5016185;28;20460;-55
2022/11/02 07:28:38;;;;;;;33.30;12.33;;;27.50;47.50;;;27.71;32.78;95623.44;5016190;28;20595;-54
2022/11/02 07:31:06;;;;;;;39.83;12.77;;;27.70;46.70;;;27.90;32.95;95629.63;5012511;28;20763;-55
2022/11/02 07:33:33;;;;;;;51.50;13.90;;;27.90;46.30;;;28.07;32.20;95618.16;5015797;28;20538;-55
2022/11/02 07:36:04;;;;;;;34.67;11.90;;;28.00;45.80;;;28.24;32.07;95619.16;5016406;28;20456;-56
2022/11/02 07:38:31;;;;;;;43.60;14.37;;;28.10;45.60;;;28.39;32.10;95616.00;5016886;28;20468;-55
2022/11/02 07:41:00;;;;;;;19.07;11.10;;;28.10;45.40;;;28.57;32.08;95612.38;5016946;28;20456;-54
2022/11/02 07:43:27;;;;;;;26.57;12.47;;;28.20;44.90;;;28.73;31.70;95615.47;5016665;28;20476;-55
2022/11/02 07:45:55;;;;;;;29.03;12.60;;;28.40;44.80;;;28.88;31.27;95617.69;5017702;28;20457;-57
2022/11/02 07:48:22;;;;;;;42.07;13.83;;;28.40;44.10;;;29.05;31.36;95617.75;5013289;28;20589;-54
2022/11/02 07:50:49;;;;;;;34.97;13.43;;;28.60;44.20;;;29.17;31.19;95621.28;5015244;28;20449;-55
2022/11/02 07:53:16;;;;;;;34.60;12.33;;;28.70;43.60;;;29.25;30.41;95620.13;5017178;28;20477;-56
2022/11/02 07:55:44;;;;;;;30.13;12.23;;;28.80;43.40;;;29.33;30.66;95615.16;5017723;28;20449;-55
2022/11/02 07:58:13;;;;;;;29.27;14.13;;;28.90;43.10;;;29.47;30.26;95612.19;5018173;28;20537;-56
2022/11/02 08:00:41;;;;;;;29.97;12.97;;;28.90;42.60;;;29.63;30.15;95605.16;5014409;28;20453;-54
2022/11/02 08:03:09;;;;;;;41.93;13.80;;;29.10;42.60;;;29.80;29.53;95608.75;5017787;28;20524;-55
2022/11/02 08:05:38;;;;;;;28.13;12.20;;;29.20;42.20;;;29.94;29.87;95597.63;5014447;28;20507;-56
2022/11/02 08:08:06;;;;;;;44.53;14.00;;;29.30;41.80;;;30.05;29.37;95599.44;5013287;28;20477;-58
2022/11/02 08:10:34;;;;;;;30.43;13.27;;;29.50;41.60;;;30.18;29.44;95593.69;5016146;28;20453;-55
2022/11/02 08:13:01;;;;;;;28.80;12.70;;;29.60;41.20;;;30.31;29.26;95587.09;5016652;28;20476;-55
2022/11/02 08:15:30;;;;;;;18.73;11.43;;;29.70;41.10;;;30.49;28.12;95587.94;5012974;28;20468;-54
2022/11/02 08:18:02;;;;;;;36.13;12.50;;;29.80;40.70;;;30.66;27.89;95588.78;5012549;28;20488;-54
2022/11/02 08:20:29;;;;;;;28.80;11.80;;;30.00;40.30;;;30.81;28.26;95590.06;5015767;28;20462;-55
2022/11/02 08:22:57;;;;;;;31.73;12.70;;;30.10;40.20;;;30.93;28.37;95585.34;5015945;28;20487;-56
2022/11/02 08:25:24;;;;;;;31.30;11.80;;;30.30;39.70;;;31.00;27.88;95577.03;5015988;28;20457;-54
2022/11/02 08:27:51;;;;;;;28.23;13.87;;;30.40;39.60;;;31.04;27.27;95580.88;5010877;28;20475;-56
2022/11/02 08:30:18;;;;;;;35.97;13.33;;;30.40;39.10;;;31.09;27.99;95567.34;5015880;28;20581;-56
2022/11/02 08:32:47;;;;;;;30.37;14.07;;;30.50;39.30;;;31.24;27.51;95572.19;5008793;28;20540;-60
2022/11/02 08:35:15;;;;;;;26.97;12.23;;;30.60;39.20;;;31.41;26.91;95567.47;5012171;28;20460;-57
2022/11/02 08:37:42;;;;;;;33.20;12.50;;;30.70;38.90;;;31.53;27.38;95563.81;5011499;28;20473;-56
2022/11/02 08:40:11;;;;;;;34.50;12.47;;;30.90;38.60;;;31.63;26.72;95566.66;5009942;28;20869;-58
2022/11/02 08:42:39;;;;;;;40.70;14.40;;;30.90;38.40;;;31.75;26.91;95570.03;5011259;28;20539;-54
2022/11/02 08:45:07;;;;;;;33.63;12.07;;;31.10;38.20;;;31.90;26.85;95563.09;5011481;28;20463;-54
2022/11/02 08:47:40;;;;;;;24.03;12.40;;;31.20;38.10;;;32.08;26.79;95562.72;5013066;28;20225;-58
2022/11/02 08:50:09;;;;;;;32.17;11.90;;;31.40;38.00;;;32.24;26.39;95555.56;5011640;28;20499;-56
2022/11/02 08:52:37;;;;;;;26.77;10.83;;;31.50;37.50;;;32.35;26.22;95551.00;5013584;28;20848;-56
2022/11/02 08:55:05;;;;;;;32.30;12.93;;;31.60;37.40;;;32.46;25.95;95555.44;5010067;28;20670;-56
2022/11/02 08:57:33;;;;;;;37.23;12.87;;;31.80;37.20;;;32.60;25.95;95555.00;5013349;28;20221;-55
2022/11/02 09:00:00;;;;;;;31.20;13.03;;;31.90;37.00;;;32.72;26.07;95549.34;5010803;28;20725;-56
2022/11/02 09:02:30;;;;;;;25.50;12.80;;;32.00;36.90;;;32.86;25.27;95556.81;5013794;28;20209;-55
2022/11/02 09:04:58;;;;;;;38.20;13.70;;;32.10;36.10;;;32.93;25.17;95550.28;5010283;28;20206;-55
2022/11/02 09:07:26;;;;;;;40.40;13.73;;;32.20;37.00;;;33.00;25.83;95553.56;5009215;28;20217;-55
2022/11/02 09:09:53;;;;;;;40.30;13.13;;;32.30;36.30;;;33.12;26.02;95547.91;5010902;28;20333;-56
2022/11/02 09:12:21;;;;;;;32.43;12.80;;;32.30;36.20;;;33.23;25.38;95547.72;5011587;28;20202;-56
2022/11/02 09:14:48;;;;;;;42.70;13.93;;;32.50;36.10;;;33.33;25.31;95541.50;5006101;28;20212;-56
2022/11/02 09:17:15;;;;;;;44.30;13.77;;;32.60;35.80;;;33.44;25.74;95545.06;5008807;28;20202;-56
2022/11/02 09:19:43;;;;;;;29.37;11.37;;;32.70;35.70;;;33.52;25.11;95539.06;5009096;28;20269;-54
2022/11/02 09:22:10;;;;;;;31.67;13.37;;;32.80;35.50;;;33.62;24.90;95540.19;5008052;28;20198;-55
2022/11/02 09:24:39;;;;;;;34.50;12.13;;;32.80;35.20;;;33.70;24.83;95529.56;5010988;28;20260;-56
2022/11/02 09:27:06;;;;;;;26.37;12.80;;;32.90;35.30;;;33.79;24.61;95532.63;5010581;28;20263;-54
2022/11/02 09:29:33;;;;;;;30.53;12.20;;;33.00;35.30;;;33.89;25.18;95532.63;5013870;28;20272;-55
2022/11/02 09:32:01;;;;;;;29.30;12.97;;;33.10;35.10;;;34.02;24.54;95524.97;5017483;28;20210;-56
2022/11/02 09:34:28;;;;;;;44.40;12.93;;;33.20;35.10;;;34.17;24.09;95519.53;5012752;28;20230;-55
2022/11/02 09:36:55;;;;;;;56.00;13.57;;;33.30;34.80;;;34.30;24.53;95515.44;5018749;28;20646;-56
2022/11/02 09:39:23;;;;;;;43.40;12.13;;;33.50;34.60;;;34.39;24.00;95512.97;5014992;28;20252;-55
2022/11/02 09:42:02;;;;;;;48.20;13.98;;;33.60;34.50;;;34.49;23.51;95512.97;5012814;28;20205;-55
2022/11/02 09:44:34;;;;;;;31.42;11.85;;;33.70;34.10;;;34.55;24.20;95511.88;5015766;28;20286;-55
2022/11/02 09:47:02;;;;;;;30.48;11.30;;;33.80;34.10;;;34.59;24.04;95501.19;5010536;28;20665;-56
2022/11/02 09:49:29;;;;;;;36.80;12.73;;;33.80;33.40;;;34.60;23.86;95498.19;5018433;28;20340;-54
2022/11/02 09:51:57;;;;;;;31.02;12.50;;;33.90;33.90;;;34.69;24.12;95494.88;5018670;28;20217;-53
2022/11/02 09:54:29;;;;;;;30.25;12.38;;;33.90;33.90;;;34.80;24.27;95489.13;5017322;28;20237;-55
2022/11/02 09:57:00;;;;;;;41.00;11.27;;;34.00;33.70;;;34.89;23.44;95492.13;5014299;28;20204;-55
2022/11/02 09:59:28;;;;;;;45.72;12.80;;;34.10;33.60;;;34.97;23.62;95483.34;5014871;28;20225;-57
2022/11/02 10:02:01;;;;;;;35.17;13.27;;;34.20;33.60;;;35.03;23.15;95477.84;5017174;28;20218;-56
2022/11/02 10:05:15;;;;;;;41.67;11.10;;;34.30;33.40;;;35.11;23.91;95475.34;5012729;28;20221;-56
2022/11/02 10:08:05;;;;;;;32.53;11.60;;;34.40;33.10;;;35.21;23.55;95474.47;5004022;28;20291;-55
2022/11/02 10:10:37;;;;;;;38.33;11.23;;;34.50;33.00;;;35.30;23.83;95466.53;5014658;28;20593;-55
2022/11/02 10:13:15;;;;;;;33.88;12.23;;;34.60;33.10;;;35.35;22.90;95464.59;5018893;28;20260;-56
2022/11/02 10:15:46;;;;;;;35.20;11.45;;;34.60;32.80;;;35.42;23.62;95458.78;5011808;28;20272;-55
2022/11/02 10:18:17;;;;;;;46.13;11.40;;;34.70;32.90;;;35.53;23.09;95460.34;5019074;28;20230;-55
2022/11/02 10:20:45;;;;;;;40.60;11.98;;;34.80;32.90;;;35.63;23.88;95461.38;5021321;28;20701;-54
2022/11/02 10:23:18;;;;;;;39.42;11.85;;;34.90;32.90;;;35.71;23.65;95453.38;5017371;28;20637;-55
2022/11/02 10:25:45;;;;;;;37.92;10.95;;;35.00;32.60;;;35.78;23.22;95455.00;5018502;28;20672;-54
2022/11/02 10:28:16;;;;;;;31.23;11.40;;;35.10;32.40;;;35.81;22.92;95455.25;5016229;28;20261;-55
2022/11/02 10:30:44;;;;;;;36.60;11.40;;;35.10;32.30;;;35.83;23.48;95453.03;5014686;28;20214;-56
2022/11/02 10:33:14;;;;;;;38.10;11.35;;;35.20;32.50;;;35.86;22.54;95443.44;5017964;28;20249;-57